Time;durP1;ratioP1;P1;durP2;ratioP2;P2;SDS_P1;SDS_P2;PMS_P1;PMS_P2;Temp;Humidity;BMP_temperature;BMP_pressure;BME280_temperature;BME280_humidity;BME280_pressure;Samples;Min_cycle;Max_cycle;Signal;HPM_P1;HPM_P2
2023/10/02 00:02:05;;;;;;;5.72;4.03;;;;;;;19.31;75.00;100435.84;4973189;28;20054;-46
2023/10/02 00:04:35;;;;;;;4.82;4.18;;;;;;;19.30;74.98;100428.91;4979270;28;20053;-48
2023/10/02 00:07:05;;;;;;;5.43;4.80;;;;;;;19.27;75.50;100430.72;4978436;28;20098;-45
2023/10/02 00:09:35;;;;;;;5.32;3.88;;;;;;;19.30;74.75;100428.91;4981195;28;20682;-45
2023/10/02 00:12:12;;;;;;;4.68;3.28;;;;;;;19.28;74.97;100423.69;4984658;28;20038;-44
2023/10/02 00:14:41;;;;;;;4.57;3.80;;;;;;;19.27;75.02;100425.47;4980497;28;20061;-44
2023/10/02 00:17:18;;;;;;;6.95;4.70;;;;;;;19.27;75.19;100430.72;4984680;28;20453;-46
2023/10/02 00:19:49;;;;;;;5.38;4.18;;;;;;;19.28;75.24;100436.81;4973853;28;20061;-45
2023/10/02 00:22:36;;;;;;;7.35;3.55;;;;;;;19.26;74.75;100434.25;4976572;28;20101;-44
2023/10/02 00:27:50;;;;;;;4.72;2.63;;;;;;;19.26;75.25;100439.50;5026072;28;20401;-45
2023/10/02 00:30:20;;;;;;;5.45;2.60;;;;;;;19.29;75.01;100442.94;5007794;28;20053;-46
2023/10/02 00:32:50;;;;;;;3.80;2.22;;;;;;;19.27;75.12;100445.63;5013025;28;20611;-49
2023/10/02 00:35:22;;;;;;;4.53;2.90;;;;;;;19.26;74.81;100455.25;5003543;28;20058;-46
2023/10/02 00:37:51;;;;;;;5.78;2.83;;;;;;;19.24;75.27;100443.09;4993833;28;20072;-45
2023/10/02 00:40:26;;;;;;;5.30;3.22;;;;;;;19.23;74.96;100452.75;4979838;28;20182;-45
2023/10/02 00:42:59;;;;;;;4.80;3.05;;;;;;;19.22;75.21;100461.50;4980925;28;20062;-47
2023/10/02 00:45:30;;;;;;;5.25;2.97;;;;;;;19.22;75.28;100458.88;5017836;28;20046;-46
2023/10/02 00:50:54;;;;;;;6.20;3.33;;;;;;;19.23;75.31;100465.88;4978009;28;20054;-44
2023/10/02 00:56:20;;;;;;;4.63;2.90;;;;;;;19.21;75.30;100451.06;4997937;28;20082;-46
2023/10/02 00:59:00;;;;;;;4.28;2.85;;;;;;;19.21;74.94;100451.94;5019198;28;20522;-46
2023/10/02 01:01:30;;;;;;;4.43;2.47;;;;;;;19.21;75.30;100449.31;4990873;28;20521;-44
2023/10/02 01:06:55;;;;;;;5.32;2.83;;;;;;;19.18;75.20;100446.78;4988725;28;20050;-46
2023/10/02 01:09:25;;;;;;;4.90;3.00;;;;;;;19.18;75.20;100436.28;4981261;28;20089;-47
2023/10/02 01:11:56;;;;;;;4.00;2.42;;;;;;;19.17;74.91;100439.81;4977318;28;20057;-45
2023/10/02 01:17:16;;;;;;;6.00;4.07;;;;;;;19.14;74.87;100446.03;4987114;28;20443;-48
2023/10/02 01:20:08;;;;;;;4.75;3.10;;;;;;;19.15;75.19;100452.13;4986440;28;20050;-44
2023/10/02 01:22:38;;;;;;;4.90;2.40;;;;;;;19.14;75.30;100450.41;4996393;28;20153;-45
2023/10/02 01:25:13;;;;;;;5.40;2.80;;;;;;;19.12;75.06;100447.81;4988229;28;20050;-46
2023/10/02 01:27:47;;;;;;;3.88;2.20;;;;;;;19.11;75.06;100450.50;4985472;28;20050;-46
2023/10/02 01:30:16;;;;;;;4.03;2.53;;;;;;;19.10;75.57;100441.78;4986348;28;20051;-44
2023/10/02 01:35:49;;;;;;;5.50;2.60;;;;;;;19.07;75.32;100448.88;4985131;28;20507;-44
2023/10/02 01:38:30;;;;;;;5.32;2.38;;;;;;;19.06;75.36;100447.13;4977856;28;20058;-45
2023/10/02 01:41:14;;;;;;;5.03;3.33;;;;;;;19.04;74.99;100438.47;4970590;28;22041;-47
2023/10/02 01:43:44;;;;;;;4.15;2.40;;;;;;;19.02;75.35;100420.97;4962881;28;20050;-45
2023/10/02 01:46:17;;;;;;;4.40;2.40;;;;;;;19.00;74.95;100422.81;4960079;28;20602;-45
2023/10/02 01:48:48;;;;;;;5.28;1.80;;;;;;;18.96;75.07;100426.44;4961649;28;20077;-44
2023/10/02 01:51:25;;;;;;;5.00;3.67;;;;;;;18.92;74.63;100435.31;4969492;28;20799;-45
2023/10/02 01:56:34;;;;;;;4.15;2.00;;;;;;;18.85;74.65;100436.41;5048363;28;20396;-44
2023/10/02 01:59:09;;;;;;;4.75;2.55;;;;;;;18.80;74.62;100435.69;4993665;28;20054;-47
2023/10/02 02:01:56;;;;;;;3.83;2.08;;;;;;;18.74;75.05;100437.59;4992111;28;20139;-46
2023/10/02 02:04:28;;;;;;;3.55;1.67;;;;;;;18.71;74.67;100429.81;4987829;28;20050;-45
2023/10/02 02:06:57;;;;;;;3.70;2.28;;;;;;;18.69;74.33;100423.78;4994411;28;20100;-44
2023/10/02 02:09:30;;;;;;;4.57;2.42;;;;;;;18.66;74.43;100423.88;4991259;28;20555;-48
2023/10/02 02:12:15;;;;;;;4.78;2.75;;;;;;;18.65;74.80;100437.91;4985561;28;20503;-45
2023/10/02 02:14:53;;;;;;;4.45;2.75;;;;;;;18.65;74.73;100427.41;4991917;28;20046;-45
2023/10/02 02:17:24;;;;;;;4.60;2.70;;;;;;;18.66;74.74;100425.63;4986934;28;20097;-48
2023/10/02 02:19:54;;;;;;;3.20;2.28;;;;;;;18.64;74.87;100425.66;4988642;28;20072;-46
2023/10/02 02:22:24;;;;;;;4.20;2.10;;;;;;;18.63;75.18;100413.47;4989949;28;20069;-45
2023/10/02 02:24:58;;;;;;;3.25;2.05;;;;;;;18.62;74.36;100417.84;4991720;28;20046;-47
2023/10/02 02:27:25;;;;;;;3.78;1.95;;;;;;;18.60;74.71;100416.16;4994184;28;20050;-45
2023/10/02 02:29:54;;;;;;;5.75;3.03;;;;;;;18.58;74.37;100407.50;4995474;28;20052;-47
2023/10/02 02:32:36;;;;;;;;;;;;;;;18.38;75.10;100406.34;4991895;28;20607;-47
2023/10/02 02:35:06;;;;;;;6.72;2.40;;;;;;;18.52;75.27;100413.78;4992322;28;19922;-46
2023/10/02 02:37:33;;;;;;;5.43;2.55;;;;;;;18.53;74.70;100420.75;4991812;28;20046;-48
2023/10/02 02:42:51;;;;;;;5.10;2.60;;;;;;;18.52;75.11;100416.41;4995652;28;20046;-44
2023/10/02 02:45:32;;;;;;;9.02;2.83;;;;;;;18.53;74.96;100412.00;4997888;28;20046;-45
2023/10/02 02:48:04;;;;;;;4.40;2.00;;;;;;;18.54;75.03;100419.00;4993815;28;20065;-45
2023/10/02 02:50:35;;;;;;;7.55;2.63;;;;;;;18.53;74.88;100417.25;4994118;28;20079;-44
2023/10/02 02:53:23;;;;;;;4.32;2.10;;;;;;;18.52;75.07;100416.41;4987940;28;20077;-44
2023/10/02 02:56:17;;;;;;;6.47;2.22;;;;;;;18.46;75.08;100417.47;4986623;28;20046;-49
2023/10/02 02:58:45;;;;;;;4.80;2.38;;;;;;;18.50;74.87;100412.97;4989794;28;20161;-43
2023/10/02 03:01:15;;;;;;;5.65;1.90;;;;;;;18.48;74.76;100414.78;4989056;28;20511;-44
2023/10/02 03:03:42;;;;;;;4.43;2.15;;;;;;;18.46;74.54;100422.72;4984735;28;20050;-49
2023/10/02 03:06:22;;;;;;;3.22;1.83;;;;;;;18.43;75.26;100421.91;4989942;28;20056;-46
2023/10/02 03:08:52;;;;;;;6.43;2.42;;;;;;;18.43;75.04;100422.78;4977467;28;20049;-49
2023/10/02 03:11:19;;;;;;;;;;;;;;;18.23;75.54;100411.13;4976004;28;20050;-50
2023/10/02 03:13:48;;;;;;;4.10;2.58;;;;;;;18.36;74.68;100410.75;4969038;28;20029;-46
2023/10/02 03:16:19;;;;;;;6.50;2.47;;;;;;;18.34;74.99;100420.44;4960143;28;20043;-47
2023/10/02 03:18:48;;;;;;;5.57;2.08;;;;;;;18.29;74.60;100423.19;4973957;28;20057;-46
2023/10/02 03:21:21;;;;;;;3.95;2.40;;;;;;;18.28;75.05;100428.47;4986571;28;20046;-47
2023/10/02 03:23:53;;;;;;;6.78;2.22;;;;;;;18.23;74.57;100426.84;4979303;28;20054;-47
2023/10/02 03:26:38;;;;;;;4.25;2.53;;;;;;;18.20;74.44;100416.44;4979204;28;20169;-45
2023/10/02 03:29:11;;;;;;;4.85;2.25;;;;;;;18.16;74.81;100409.59;4966283;28;20439;-46
2023/10/02 03:31:43;;;;;;;7.35;3.08;;;;;;;18.12;74.51;100407.94;4976417;28;20054;-46
2023/10/02 03:34:27;;;;;;;7.10;2.30;;;;;;;18.09;74.32;100413.28;4982693;28;20657;-47
2023/10/02 03:37:08;;;;;;;4.13;2.05;;;;;;;18.04;74.10;100416.00;4979901;28;20582;-45
2023/10/02 03:42:25;;;;;;;4.03;1.67;;;;;;;17.95;74.29;100406.66;4978523;28;20054;-45
2023/10/02 03:44:54;;;;;;;6.00;2.22;;;;;;;17.92;74.04;100406.72;4980571;28;20038;-47
2023/10/02 03:47:23;;;;;;;5.85;2.45;;;;;;;17.89;74.08;100413.78;4976854;28;20058;-49
2023/10/02 03:49:51;;;;;;;6.47;2.63;;;;;;;17.84;74.77;100417.41;4976823;28;20050;-45
2023/10/02 03:52:18;;;;;;;5.50;2.25;;;;;;;17.82;74.00;100413.09;4979105;28;20054;-47
2023/10/02 03:54:45;;;;;;;3.97;2.05;;;;;;;17.79;74.77;100411.44;4975266;28;20038;-46
2023/10/02 03:57:37;;;;;;;5.80;2.72;;;;;;;17.79;74.20;100405.31;4971442;28;20054;-45
2023/10/02 04:02:54;;;;;;;5.72;1.90;;;;;;;17.75;74.56;100396.69;4981225;28;20050;-45
2023/10/02 04:08:36;;;;;;;6.43;2.63;;;;;;;17.68;74.41;100403.88;4971056;28;19922;-44
2023/10/02 04:10:55;;;;;;;6.18;2.80;;;;;;;17.66;74.91;100389.94;4970550;28;20054;-47
2023/10/02 04:13:31;;;;;;;8.30;3.15;;;;;;;17.64;74.76;100386.53;4972095;28;20058;-46
2023/10/02 04:18:49;;;;;;;6.78;2.45;;;;;;;17.56;74.41;100385.88;4975132;28;20060;-46
2023/10/02 04:21:22;;;;;;;7.50;2.75;;;;;;;17.54;74.78;100385.03;4976471;28;20057;-46
2023/10/02 04:23:53;;;;;;;10.88;2.35;;;;;;;17.49;74.50;100393.00;4972180;28;20050;-46
2023/10/02 04:26:21;;;;;;;8.88;2.35;;;;;;;17.47;74.29;100398.28;4981594;28;20069;-45
2023/10/02 04:28:54;;;;;;;6.07;2.50;;;;;;;17.45;74.12;100397.47;4974729;28;20146;-44
2023/10/02 04:31:27;;;;;;;8.80;2.47;;;;;;;17.43;74.97;100404.50;4969840;28;20058;-45
2023/10/02 04:36:43;;;;;;;6.38;3.03;;;;;;;17.40;74.97;100404.59;4971348;28;20054;-43
2023/10/02 04:39:51;;;;;;;6.90;2.67;;;;;;;17.38;74.83;100393.28;4970314;28;20043;-47
2023/10/02 04:42:11;;;;;;;7.32;2.25;;;;;;;17.37;74.76;100403.81;4979884;28;20046;-45
2023/10/02 04:44:44;;;;;;;6.60;3.03;;;;;;;17.36;74.52;100407.34;4974368;28;20105;-45
2023/10/02 04:47:17;;;;;;;6.78;2.25;;;;;;;17.34;74.95;100415.22;4978510;28;20047;-44
2023/10/02 04:52:53;;;;;;;9.45;4.38;;;;;;;17.30;74.65;100416.19;5023841;28;20407;-44
2023/10/02 04:55:07;;;;;;;9.65;4.82;;;;;;;17.29;74.21;100419.72;5001946;28;20109;-45
2023/10/02 04:57:34;;;;;;;14.43;4.68;;;;;;;17.28;73.92;100420.59;5015417;28;20046;-45
2023/10/02 05:00:19;;;;;;;7.93;3.17;;;;;;;17.27;74.10;100419.75;5019272;28;20596;-45
2023/10/02 05:02:47;;;;;;;7.43;3.97;;;;;;;17.27;74.99;100418.88;5014862;28;20057;-45
2023/10/02 05:05:16;;;;;;;10.75;3.85;;;;;;;17.27;74.44;100422.38;5014895;28;20050;-45
2023/10/02 05:07:47;;;;;;;8.32;4.75;;;;;;;17.27;74.08;100411.03;5014035;28;20498;-47
2023/10/02 05:10:14;;;;;;;9.00;3.97;;;;;;;17.26;74.29;100404.09;5018150;28;20061;-49
2023/10/02 05:12:44;;;;;;;9.52;4.90;;;;;;;17.25;74.86;100394.53;5019775;28;20045;-45
2023/10/02 05:15:20;;;;;;;10.02;4.47;;;;;;;17.21;74.35;100394.59;5015727;28;20065;-44
2023/10/02 05:17:47;;;;;;;8.05;4.47;;;;;;;17.19;74.54;100391.13;5012050;28;20557;-46
2023/10/02 05:20:15;;;;;;;9.65;5.13;;;;;;;17.18;74.21;100392.03;5009900;28;20065;-46
2023/10/02 05:22:43;;;;;;;8.05;3.92;;;;;;;17.15;74.74;100394.72;5011430;28;20061;-45
2023/10/02 05:25:10;;;;;;;10.70;4.43;;;;;;;17.13;74.00;100398.28;5009068;28;20053;-47
2023/10/02 05:27:38;;;;;;;10.75;5.53;;;;;;;17.10;74.63;100396.63;5011776;28;20056;-47
2023/10/02 05:30:18;;;;;;;9.32;3.95;;;;;;;17.07;74.77;100397.56;5012671;28;20160;-45
2023/10/02 05:32:45;;;;;;;9.07;4.82;;;;;;;17.05;74.36;100403.66;5010296;28;20602;-44
2023/10/02 05:37:48;;;;;;;8.38;2.85;;;;;;;17.00;74.20;100395.06;5007640;28;20485;-46
2023/10/02 05:51:09;;;;;;;8.75;4.05;;;;;;;16.86;73.88;100404.13;5038240;28;20408;-45
2023/10/02 05:53:37;;;;;;;7.00;3.75;;;;;;;16.79;74.31;100390.31;5003678;28;20041;-48
2023/10/02 05:56:05;;;;;;;7.55;3.67;;;;;;;16.74;74.59;100386.94;5003057;28;20053;-47
2023/10/02 05:58:36;;;;;;;;;;;;;;;16.51;74.06;100387.47;5008145;28;20406;-48
2023/10/02 06:01:05;;;;;;;;;;;;;;;16.43;74.85;100391.13;4997184;28;19921;-48
2023/10/02 06:06:21;;;;;;;9.23;3.70;;;;;;;16.97;72.58;100390.78;5039613;27;20421;-46
2023/10/02 06:08:55;;;;;;;6.85;2.72;;;;;;;16.69;73.54;100396.66;4999013;28;20129;-45
2023/10/02 06:11:26;;;;;;;10.25;3.10;;;;;;;16.62;74.09;100398.53;4995914;28;20128;-45
2023/10/02 06:14:09;;;;;;;9.73;3.28;;;;;;;16.58;73.82;100412.56;5006150;28;20403;-44
2023/10/02 06:16:41;;;;;;;9.13;2.92;;;;;;;16.53;74.32;100412.69;4999753;28;20145;-47
2023/10/02 06:19:13;;;;;;;9.00;3.47;;;;;;;16.52;74.49;100415.34;5003358;28;20494;-47
2023/10/02 06:21:45;;;;;;;8.25;3.28;;;;;;;16.51;74.12;100417.06;4987541;28;20046;-46
2023/10/02 06:26:49;;;;;;;7.22;2.22;;;;;;;16.48;74.20;100429.38;5048464;28;20453;-45
2023/10/02 06:29:22;;;;;;;10.63;2.78;;;;;;;16.48;74.12;100421.53;5018731;28;20068;-45
2023/10/02 06:31:51;;;;;;;11.13;5.03;;;;;;;16.47;73.93;100422.41;5018802;28;20796;-45
2023/10/02 06:34:18;;;;;;;7.75;2.65;;;;;;;16.46;73.98;100432.00;5021419;28;20056;-44
2023/10/02 06:37:02;;;;;;;8.18;3.58;;;;;;;16.45;74.34;100439.00;5019031;28;20064;-46
2023/10/02 06:39:35;;;;;;;8.60;3.13;;;;;;;16.45;74.59;100448.59;5016135;28;20187;-44
2023/10/02 06:42:05;;;;;;;8.23;2.80;;;;;;;16.45;74.59;100441.59;5018626;28;20038;-44
2023/10/02 06:44:38;;;;;;;7.82;2.35;;;;;;;16.47;74.12;100438.94;5016642;28;20682;-45
2023/10/02 06:47:11;;;;;;;9.43;2.95;;;;;;;16.48;74.45;100445.91;5012651;28;20129;-45
2023/10/02 06:49:44;;;;;;;7.70;2.58;;;;;;;16.52;74.37;100444.09;5019731;28;20126;-45
2023/10/02 06:52:19;;;;;;;8.90;2.80;;;;;;;16.53;74.75;100433.59;5016732;28;20053;-48
2023/10/02 06:54:49;;;;;;;8.95;2.92;;;;;;;16.56;74.75;100440.53;5013659;28;20053;-46
2023/10/02 06:57:18;;;;;;;10.32;3.17;;;;;;;16.56;74.20;100430.06;5017971;28;20050;-45
2023/10/02 06:59:54;;;;;;;8.05;2.60;;;;;;;16.57;74.40;100429.16;5019436;28;20412;-46
2023/10/02 07:02:26;;;;;;;;;;;;;;;16.42;75.10;100431.19;5017214;28;20072;-45
2023/10/02 07:04:55;;;;;;;10.43;3.38;;;;;;;16.59;74.79;100430.00;5018116;28;19929;-47
2023/10/02 07:11:19;;;;;;;9.43;2.95;;;;;;;16.65;74.74;100437.69;4979534;28;20599;-44
2023/10/02 07:26:04;;;;;;;8.88;2.70;;;;;;;16.85;74.79;100423.31;5001570;28;20052;-44
2023/10/02 07:28:31;;;;;;;9.57;2.83;;;;;;;16.98;74.24;100417.81;4959773;28;20050;-46
2023/10/02 07:30:59;;;;;;;7.85;3.33;;;;;;;17.08;74.18;100425.44;5007853;28;20049;-45
2023/10/02 07:33:27;;;;;;;8.25;2.50;;;;;;;17.15;74.56;100422.66;5030622;28;20099;-47
2023/10/02 07:35:54;;;;;;;7.10;3.45;;;;;;;17.23;74.70;100422.47;5036741;28;20570;-50
2023/10/02 07:38:29;;;;;;;8.23;2.65;;;;;;;17.29;73.93;100417.09;5014252;28;20049;-46
2023/10/02 07:41:06;;;;;;;10.30;3.33;;;;;;;17.37;74.34;100419.50;5014066;28;20073;-43
2023/10/02 07:43:34;;;;;;;10.85;3.20;;;;;;;17.45;74.10;100423.66;5020687;28;20052;-45
2023/10/02 07:46:06;;;;;;;7.05;2.53;;;;;;;17.53;73.70;100420.00;5003398;28;20045;-45
2023/10/02 07:48:33;;;;;;;6.70;2.60;;;;;;;17.57;74.11;100421.63;5018396;28;20060;-48
2023/10/02 07:51:06;;;;;;;7.72;2.88;;;;;;;17.60;73.06;100427.63;5021766;28;20044;-44
2023/10/02 07:53:43;;;;;;;9.77;2.90;;;;;;;17.62;73.74;100430.22;5008925;28;20233;-46
2023/10/02 07:56:14;;;;;;;9.93;2.85;;;;;;;17.63;74.20;100431.94;5024418;28;20716;-45
2023/10/02 07:58:41;;;;;;;9.25;4.00;;;;;;;17.64;73.50;100438.91;5027414;28;20443;-45
2023/10/02 08:01:12;;;;;;;10.00;2.53;;;;;;;17.66;73.47;100450.19;5008461;28;20144;-46
2023/10/02 08:03:45;;;;;;;8.25;2.67;;;;;;;17.66;73.56;100447.56;5029249;28;20053;-47
2023/10/02 08:11:52;;;;;;;8.85;3.17;;;;;;;17.65;72.99;100445.84;5008994;28;20068;-46
2023/10/02 08:17:21;;;;;;;6.88;3.05;;;;;;;17.75;73.44;100458.69;5010236;28;20108;-45
2023/10/02 08:19:54;;;;;;;9.68;3.90;;;;;;;17.78;73.12;100456.00;4999603;28;20593;-47
2023/10/02 08:22:35;;;;;;;10.40;3.17;;;;;;;17.84;73.87;100455.84;5020095;28;20056;-45
2023/10/02 08:25:04;;;;;;;13.02;3.67;;;;;;;17.93;73.65;100455.59;5020711;28;20049;-48
2023/10/02 08:27:32;;;;;;;9.80;2.88;;;;;;;18.03;74.00;100450.13;5025272;28;20481;-50
2023/10/02 08:30:01;;;;;;;8.13;2.95;;;;;;;18.09;73.75;100450.84;5025720;28;20411;-47
2023/10/02 08:32:30;;;;;;;12.13;3.90;;;;;;;18.16;73.01;100456.75;5023247;28;20046;-51
2023/10/02 08:34:57;;;;;;;10.63;2.78;;;;;;;18.22;73.01;100450.50;5021098;28;20049;-48
2023/10/02 08:37:25;;;;;;;9.55;3.05;;;;;;;18.30;73.06;100442.41;5025005;28;20046;-47
2023/10/02 08:39:52;;;;;;;11.40;2.67;;;;;;;18.35;73.01;100443.13;5020702;28;20037;-46
2023/10/02 08:42:24;;;;;;;9.13;2.40;;;;;;;18.40;72.15;100440.41;5023564;28;20060;-45
2023/10/02 08:44:58;;;;;;;8.85;3.13;;;;;;;18.43;72.81;100443.78;5022604;28;20048;-45
2023/10/02 08:47:25;;;;;;;11.98;3.47;;;;;;;18.50;72.16;100440.06;5024597;28;20084;-50
2023/10/02 08:50:10;;;;;;;8.95;3.25;;;;;;;18.61;72.30;100431.88;5020464;28;20058;-49
2023/10/02 08:52:38;;;;;;;8.80;3.03;;;;;;;18.72;72.11;100438.56;5010156;28;20107;-46
2023/10/02 08:58:19;;;;;;;7.18;2.58;;;;;;;18.87;71.26;100437.22;5009407;28;20175;-44
2023/10/02 09:04:03;;;;;;;6.95;3.08;;;;;;;18.97;70.86;100443.91;4992931;27;20415;-46
2023/10/02 09:06:37;;;;;;;9.65;2.97;;;;;;;19.29;70.85;100442.94;4991472;28;20058;-47
2023/10/02 09:11:52;;;;;;;8.43;3.00;;;;;;;19.96;69.12;100443.31;4992209;28;20427;-46
2023/10/02 09:14:39;;;;;;;7.80;2.95;;;;;;;19.97;68.19;100443.25;4987737;28;20054;-44
2023/10/02 09:17:24;;;;;;;9.52;3.05;;;;;;;19.92;67.63;100447.81;4992505;28;20863;-47
2023/10/02 09:22:37;;;;;;;11.35;4.75;;;;;;;20.04;68.04;100452.66;5079575;27;20397;-49
2023/10/02 09:25:15;;;;;;;7.80;3.42;;;;;;;20.35;67.81;100449.81;5038056;28;20715;-45
2023/10/02 09:28:13;;;;;;;9.05;5.15;;;;;;;20.79;67.71;100455.16;5058711;28;20559;-46
2023/10/02 09:30:41;;;;;;;9.63;4.13;;;;;;;21.11;66.21;100452.19;5045222;28;20130;-44
2023/10/02 09:33:22;;;;;;;9.80;5.15;;;;;;;21.38;66.16;100456.41;5038260;28;20053;-46
2023/10/02 09:36:19;;;;;;;10.13;4.63;;;;;;;21.58;65.32;100459.03;5033767;28;20092;-50
2023/10/02 09:39:31;;;;;;;9.27;4.35;;;;;;;21.70;64.59;100457.66;5056717;28;20068;-45
2023/10/02 09:42:05;;;;;;;11.32;4.95;;;;;;;21.84;65.15;100458.88;5069633;28;20067;-45
2023/10/02 09:44:40;;;;;;;9.50;4.53;;;;;;;21.93;64.25;100460.25;5058964;28;20127;-49
2023/10/02 09:47:08;;;;;;;10.63;4.90;;;;;;;22.01;63.42;100454.63;5058098;28;20762;-46
2023/10/02 09:49:47;;;;;;;9.15;4.50;;;;;;;22.06;62.49;100447.38;5055884;28;20070;-47
2023/10/02 09:52:23;;;;;;;9.95;5.00;;;;;;;22.11;62.28;100447.16;5054500;28;20051;-45
2023/10/02 09:55:03;;;;;;;10.93;4.22;;;;;;;22.25;62.56;100447.41;5036679;28;20073;-50
2023/10/02 09:57:36;;;;;;;11.63;4.57;;;;;;;22.33;62.07;100439.97;5037057;28;20060;-46
2023/10/02 10:00:33;;;;;;;8.15;3.85;;;;;;;22.31;61.89;100430.44;5035432;28;20052;-46
2023/10/02 10:06:19;;;;;;;12.70;3.25;;;;;;;22.29;61.60;100443.69;5053569;27;20416;-44
2023/10/02 10:14:37;;;;;;;9.25;3.10;;;;;;;22.68;61.71;100430.53;5015274;28;20391;-48
2023/10/02 10:17:16;;;;;;;8.15;2.80;;;;;;;22.70;60.38;100432.16;4975118;28;20054;-47
2023/10/02 10:30:33;;;;;;;10.27;3.15;;;;;;;22.75;59.40;100417.88;5055211;28;20726;-46
2023/10/02 10:41:05;;;;;;;10.70;3.67;;;;;;;22.19;59.90;100416.03;5037436;27;20410;-46
2023/10/02 10:46:24;;;;;;;5.80;2.92;;;;;;;22.01;59.94;100408.03;4998178;28;20053;-46
2023/10/02 10:49:07;;;;;;;11.23;2.90;;;;;;;22.01;60.06;100401.88;5013502;28;20144;-47
2023/10/02 10:51:36;;;;;;;8.35;3.30;;;;;;;22.11;60.65;100397.03;5012049;28;20102;-44
2023/10/02 10:54:12;;;;;;;7.78;2.40;;;;;;;22.31;60.47;100394.38;5013000;28;20403;-47
2023/10/02 10:56:43;;;;;;;11.52;2.60;;;;;;;22.49;59.53;100386.50;5013003;28;20054;-44
2023/10/02 10:59:12;;;;;;;9.15;2.67;;;;;;;22.55;58.91;100378.28;5011929;28;20053;-47
2023/10/02 11:02:09;;;;;;;8.55;2.47;;;;;;;22.51;59.24;100368.81;5013707;28;20073;-45
2023/10/02 11:04:39;;;;;;;10.80;2.72;;;;;;;22.42;59.17;100369.22;5027848;28;20104;-47
2023/10/02 11:07:25;;;;;;;11.60;2.83;;;;;;;22.39;58.70;100364.13;5008272;28;20042;-47
2023/10/02 11:12:56;;;;;;;12.57;3.58;;;;;;;22.33;58.92;100365.28;4993502;28;20133;-47
2023/10/02 11:18:21;;;;;;;10.02;3.38;;;;;;;22.24;59.28;100356.00;5019428;28;20041;-45
2023/10/02 11:20:51;;;;;;;11.30;2.85;;;;;;;22.15;58.82;100353.81;5006006;28;20140;-48
2023/10/02 11:23:40;;;;;;;8.05;2.55;;;;;;;22.06;58.83;100353.28;5008232;28;20073;-44
2023/10/02 11:26:13;;;;;;;8.23;2.63;;;;;;;22.05;59.04;100356.84;5012718;28;20161;-45
2023/10/02 11:28:44;;;;;;;6.65;2.83;;;;;;;22.03;58.54;100364.00;5010579;28;20050;-44
2023/10/02 11:31:29;;;;;;;8.00;2.67;;;;;;;21.98;59.67;100359.84;5009206;28;20069;-45
2023/10/02 11:36:39;;;;;;;7.10;2.90;;;;;;;22.03;59.60;100358.72;5046868;28;21090;-46
2023/10/02 11:39:09;;;;;;;6.90;2.90;;;;;;;22.15;59.01;100367.81;5018021;28;20809;-46
2023/10/02 11:41:37;;;;;;;9.40;2.92;;;;;;;22.25;59.34;100357.69;5018166;28;20049;-47
2023/10/02 11:44:05;;;;;;;8.68;3.00;;;;;;;22.34;58.53;100362.56;5013119;28;20048;-48
2023/10/02 11:46:33;;;;;;;9.50;2.97;;;;;;;22.41;59.14;100356.97;5019118;28;20061;-48
2023/10/02 11:49:00;;;;;;;9.98;3.17;;;;;;;22.50;58.61;100343.34;5023149;28;20046;-46
2023/10/02 11:51:28;;;;;;;10.40;2.72;;;;;;;22.52;58.40;100349.41;5019509;28;20056;-48
2023/10/02 11:53:57;;;;;;;7.53;2.50;;;;;;;22.54;58.30;100352.84;5015998;28;20144;-46
2023/10/02 11:56:26;;;;;;;7.80;3.03;;;;;;;22.59;58.02;100353.50;5010271;28;20045;-45
2023/10/02 11:58:53;;;;;;;12.23;3.22;;;;;;;22.69;57.42;100351.25;5019715;28;20120;-46
2023/10/02 12:01:22;;;;;;;9.15;3.15;;;;;;;22.70;57.47;100347.69;5016332;28;21726;-49
2023/10/02 12:03:49;;;;;;;6.63;2.55;;;;;;;22.73;58.03;100334.34;5011999;28;20054;-47
2023/10/02 12:06:17;;;;;;;8.10;3.22;;;;;;;22.81;57.68;100326.03;5011969;28;20048;-45
2023/10/02 12:08:44;;;;;;;8.23;2.38;;;;;;;22.84;57.31;100336.44;5018736;28;20045;-47
2023/10/02 12:11:13;;;;;;;8.52;3.33;;;;;;;22.83;57.03;100337.38;5017159;28;20049;-48
2023/10/02 12:13:42;;;;;;;10.20;2.80;;;;;;;22.76;56.60;100329.84;5017612;28;20054;-45
2023/10/02 12:16:11;;;;;;;8.50;3.13;;;;;;;22.70;56.39;100325.72;5003536;28;20050;-45
2023/10/02 12:18:38;;;;;;;8.80;3.05;;;;;;;22.66;57.29;100318.88;5011247;28;20089;-46
2023/10/02 12:21:11;;;;;;;8.65;2.65;;;;;;;22.64;56.97;100316.31;5016455;28;20053;-48
2023/10/02 12:23:40;;;;;;;8.55;2.90;;;;;;;22.62;57.46;100323.44;5008843;28;20442;-48
2023/10/02 12:26:09;;;;;;;7.28;3.13;;;;;;;22.57;56.74;100326.34;5018240;28;20069;-45
2023/10/02 12:28:37;;;;;;;9.23;2.83;;;;;;;22.57;57.51;100328.09;5020397;28;20050;-45
2023/10/02 12:31:13;;;;;;;9.07;3.22;;;;;;;22.52;56.99;100323.00;5008741;28;20392;-47
2023/10/02 12:33:42;;;;;;;11.07;3.15;;;;;;;22.49;56.63;100317.88;5009674;28;20045;-44
2023/10/02 12:38:50;;;;;;;9.90;3.67;;;;;;;22.42;57.00;100287.44;5057886;27;20401;-47
2023/10/02 12:41:19;;;;;;;9.88;3.50;;;;;;;22.36;56.86;100295.66;5036363;28;20049;-47
2023/10/02 12:43:48;;;;;;;9.32;3.25;;;;;;;22.28;57.18;100307.44;5048009;28;20188;-49
2023/10/02 12:46:15;;;;;;;10.30;3.30;;;;;;;22.24;57.70;100308.50;5059105;28;20119;-50
2023/10/02 12:48:46;;;;;;;8.10;3.17;;;;;;;22.19;57.86;100310.53;5084728;28;20049;-48
2023/10/02 12:51:14;;;;;;;8.30;3.65;;;;;;;22.12;57.84;100309.09;5095688;28;20048;-45
2023/10/02 12:53:42;;;;;;;9.27;3.17;;;;;;;22.11;58.64;100297.69;5061187;28;20139;-48
2023/10/02 12:56:15;;;;;;;9.15;3.75;;;;;;;22.09;58.11;100289.00;5055103;28;20079;-47
2023/10/02 12:58:42;;;;;;;10.70;4.00;;;;;;;22.03;58.40;100269.06;5052475;28;20052;-47
2023/10/02 13:01:13;;;;;;;9.05;3.03;;;;;;;21.90;58.47;100260.00;5062783;28;20045;-47
2023/10/02 13:03:42;;;;;;;11.65;3.13;;;;;;;21.80;58.38;100278.03;5060362;28;20061;-47
2023/10/02 13:06:12;;;;;;;;;;;;;;;21.58;59.39;100303.56;5062333;28;20044;-49
2023/10/02 13:08:40;;;;;;;7.82;2.42;;;;;;;21.74;59.36;100310.78;5059199;28;19927;-45
2023/10/02 13:11:12;;;;;;;9.88;3.15;;;;;;;21.79;58.90;100308.78;5059292;28;20556;-46
2023/10/02 13:13:41;;;;;;;10.80;3.10;;;;;;;21.80;59.20;100305.25;5049935;28;20670;-46
2023/10/02 13:16:07;;;;;;;9.75;3.22;;;;;;;21.83;59.08;100288.44;5042187;28;20848;-46
2023/10/02 13:18:35;;;;;;;9.93;2.95;;;;;;;21.89;59.02;100266.22;5042382;28;20041;-47
2023/10/02 13:21:02;;;;;;;8.45;3.17;;;;;;;21.93;59.08;100246.69;5042023;28;20045;-46
2023/10/02 13:23:29;;;;;;;9.05;3.10;;;;;;;21.97;58.89;100237.69;5046135;28;20462;-46
2023/10/02 13:25:56;;;;;;;9.70;3.58;;;;;;;22.00;59.06;100236.69;5055778;28;20064;-46
2023/10/02 13:28:24;;;;;;;10.30;2.90;;;;;;;22.05;58.73;100224.13;5043754;28;20048;-45
2023/10/02 13:30:52;;;;;;;10.55;3.10;;;;;;;22.07;58.61;100206.47;5038140;28;20045;-48
2023/10/02 13:33:20;;;;;;;9.65;2.90;;;;;;;22.07;59.15;100209.97;5037681;28;20153;-47
2023/10/02 13:35:54;;;;;;;10.77;3.25;;;;;;;22.11;58.55;100193.97;5034987;28;20720;-45
2023/10/02 13:38:21;;;;;;;9.05;3.58;;;;;;;22.12;58.50;100198.34;5036585;28;20056;-46
2023/10/02 13:40:47;;;;;;;8.35;2.92;;;;;;;22.15;58.40;100203.47;5037429;28;20480;-45
2023/10/02 13:43:16;;;;;;;11.90;3.85;;;;;;;22.16;58.59;100174.34;5038021;28;20052;-46
2023/10/02 13:45:45;;;;;;;9.18;3.42;;;;;;;22.23;58.37;100164.38;5036155;28;20222;-45
2023/10/02 13:48:13;;;;;;;9.60;3.10;;;;;;;22.25;58.23;100157.22;5033690;28;20500;-46
2023/10/02 13:50:40;;;;;;;10.15;3.08;;;;;;;22.25;58.20;100149.28;5021164;28;21197;-46
2023/10/02 13:53:26;;;;;;;8.80;3.33;;;;;;;22.19;58.01;100152.25;5023983;28;20064;-45
2023/10/02 13:55:53;;;;;;;10.50;3.13;;;;;;;22.14;58.42;100143.69;5025434;28;20052;-45
2023/10/02 13:58:22;;;;;;;10.63;3.65;;;;;;;22.06;58.06;100158.13;5022387;28;20117;-47
2023/10/02 14:00:49;;;;;;;12.45;3.25;;;;;;;22.00;58.59;100163.72;5029438;28;20056;-45
2023/10/02 14:03:16;;;;;;;9.57;3.67;;;;;;;21.95;58.41;100166.56;5026184;28;20049;-46
2023/10/02 14:05:43;;;;;;;8.45;3.03;;;;;;;21.94;58.84;100174.56;5030975;28;20136;-48